KDEC/DEC METAR and TAF weather

Enter ICAO airport designator
Station Type Date Time Source
KDEC METAR 2021/02/28 02:54 UTC NOAA

KDEC 280254Z 13009KT 8SM CLR 07/01 A2999 RMK AO2 SLP158 T00720006 56015


Station Type Date Time Source
KDEC Decoded METAR 2021/02/28 02:54 UTC NOAA

DECATUR AIRPORT, IL, United States (KDEC) 39-50N 88-52W 207M
Feb 27, 2021 - 09:54 PM EST / 2021.02.28 0254 UTC
Wind: from the SE (130 degrees) at 10 MPH (9 KT):0
Visibility: 8 mile(s):0
Sky conditions: clear
Temperature: 45.0 F (7.2 C)
Dew Point: 33.1 F (0.6 C)
Relative Humidity: 62%
Pressure (altimeter): 29.99 in. Hg (1015 hPa)
Pressure tendency: 0.04 inches (1.5 hPa) lower than three hours ago
ob: KDEC 280254Z 13009KT 8SM CLR 07/01 A2999 RMK AO2 SLP158 T00720006 56015
cycle: 3

Station Type Date Time Source
KDEC TAF 2021/02/28 00:00 UTC NOAA

KDEC 272358Z 2800/2824 12006KT P6SM BKN250
FM280700 14008KT 6SM BR VCSH OVC007
FM281000 18008KT 3SM -RA BR OVC005
FM281500 24010G18KT 5SM BR BKN004
FM281600 25011G19KT P6SM BKN006
FM282000 29015G27KT P6SM BKN025

Example: see airport list